Time,TemperatureF,DewpointF,PressureIn,WindDirection,WindDirectionDegrees,WindSpeedMPH,WindSpeedGustMPH,Humidity,HourlyPrecipIn,Conditions,Clouds,dailyrainin,SoftwareType,DateUTC
2013-09-30 00:00:00,44.9,42.7,30.07,NE,41,0.0,0.0,92,0.00,,,-99.99,VWS V12.06,2013-09-30 04:00:00,
2013-09-30 00:15:00,44.8,42.6,30.07,NE,41,0.0,0.0,92,0.00,,,-99.99,VWS V12.06,2013-09-30 04:15:00,
2013-09-30 00:30:00,44.6,42.7,30.06,NE,41,0.0,0.0,93,0.00,,,-99.99,VWS V12.06,2013-09-30 04:30:00,
2013-09-30 00:45:00,44.5,42.6,30.05,NE,41,0.0,0.0,93,0.00,,,-99.99,VWS V12.06,2013-09-30 04:45:00,
2013-09-30 01:00:00,44.5,42.9,30.05,NE,41,0.0,0.0,94,0.00,,,-99.99,VWS V12.06,2013-09-30 05:00:00,
2013-09-30 01:15:00,44.5,42.9,30.05,NE,41,0.0,0.0,94,0.00,,,-99.99,VWS V12.06,2013-09-30 05:15:00,
2013-09-30 01:30:00,44.3,42.7,30.05,NE,41,0.0,0.0,94,0.00,,,-99.99,VWS V12.06,2013-09-30 05:30:00,
2013-09-30 01:45:00,44.2,42.9,30.06,NE,41,0.0,0.0,95,0.00,,,-99.99,VWS V12.06,2013-09-30 05:45:00,
2013-09-30 02:00:00,44.2,42.9,30.05,NE,41,0.0,0.0,95,0.00,,,-99.99,VWS V12.06,2013-09-30 06:00:00,
2013-09-30 02:15:00,44.1,42.8,30.05,NE,41,0.0,0.0,95,0.00,,,-99.99,VWS V12.06,2013-09-30 06:15:00,
2013-09-30 02:30:00,44.2,42.9,30.05,NE,41,0.0,0.0,95,0.00,,,-99.99,VWS V12.06,2013-09-30 06:30:00,
2013-09-30 02:45:00,44.2,42.9,30.04,NE,41,0.0,0.0,95,0.00,,,-99.99,VWS V12.06,2013-09-30 06:45:00,
2013-09-30 03:00:00,43.9,42.6,30.03,NE,41,0.0,0.0,95,0.00,,,-99.99,VWS V12.06,2013-09-30 07:00:00,
2013-09-30 03:15:00,43.6,42.3,30.03,NE,41,0.0,0.0,95,0.00,,,-99.99,VWS V12.06,2013-09-30 07:15:00,
2013-09-30 03:30:00,43.6,42.5,30.03,NE,41,0.0,0.0,96,0.00,,,-99.99,VWS V12.06,2013-09-30 07:30:00,
2013-09-30 03:45:00,43.3,42.2,30.02,NE,41,0.0,0.0,96,0.00,,,-99.99,VWS V12.06,2013-09-30 07:45:00,
2013-09-30 04:00:00,43.2,42.1,30.03,NE,41,0.0,0.0,96,0.00,,,-99.99,VWS V12.06,2013-09-30 08:00:00,
2013-09-30 04:15:00,43.1,42.0,30.03,NE,41,0.0,0.0,96,0.00,,,-99.99,VWS V12.06,2013-09-30 08:15:00,
2013-09-30 04:30:00,42.9,41.8,30.04,NE,41,0.0,0.0,96,0.00,,,-99.99,VWS V12.06,2013-09-30 08:30:00,
2013-09-30 04:45:00,42.6,41.5,30.04,NE,41,0.0,0.0,96,0.00,,,-99.99,VWS V12.06,2013-09-30 08:45:00,
2013-09-30 05:00:00,42.6,41.5,30.04,NE,41,0.0,0.0,96,0.00,,,-99.99,VWS V12.06,2013-09-30 09:00:00,
2013-09-30 05:15:00,42.6,41.5,30.03,NE,41,0.0,0.0,96,0.00,,,-99.99,VWS V12.06,2013-09-30 09:15:00,
2013-09-30 05:30:00,42.6,41.5,30.03,NE,41,0.0,0.0,96,0.00,,,-99.99,VWS V12.06,2013-09-30 09:30:00,
2013-09-30 05:45:00,42.8,41.7,30.04,NE,41,0.0,0.0,96,0.00,,,-99.99,VWS V12.06,2013-09-30 09:45:00,
2013-09-30 06:00:00,42.6,41.5,30.04,NE,41,0.0,0.0,96,0.00,,,-99.99,VWS V12.06,2013-09-30 10:00:00,
2013-09-30 06:15:00,42.6,41.5,30.04,NE,41,0.0,0.0,96,0.00,,,-99.99,VWS V12.06,2013-09-30 10:15:00,
2013-09-30 06:30:00,42.8,41.7,30.04,NE,41,0.0,0.0,96,0.00,,,-99.99,VWS V12.06,2013-09-30 10:30:00,
2013-09-30 06:45:00,42.8,41.7,30.04,NE,41,0.0,0.0,96,0.00,,,-99.99,VWS V12.06,2013-09-30 10:45:00,
2013-09-30 07:00:00,42.6,41.5,30.03,NE,41,0.0,0.0,96,0.00,,,-99.99,VWS V12.06,2013-09-30 11:00:00,
2013-09-30 07:15:00,43.1,42.0,30.03,NE,41,0.0,0.0,96,0.00,,,-99.99,VWS V12.06,2013-09-30 11:15:00,
2013-09-30 07:30:00,43.3,42.2,30.03,NE,41,0.0,0.0,96,0.00,,,-99.99,VWS V12.06,2013-09-30 11:30:00,
2013-09-30 07:45:00,44.1,43.3,30.03,NE,41,0.0,0.0,97,0.00,,,-99.99,VWS V12.06,2013-09-30 11:45:00,
2013-09-30 08:00:00,45.2,44.4,30.04,NE,41,0.0,0.0,97,0.00,,,-99.99,VWS V12.06,2013-09-30 12:00:00,
2013-09-30 08:15:00,46.7,45.9,30.04,NE,41,0.0,0.0,97,0.00,,,-99.99,VWS V12.06,2013-09-30 12:15:00,
2013-09-30 08:30:00,48.0,47.2,30.04,NE,41,0.0,0.0,97,0.00,,,-99.99,VWS V12.06,2013-09-30 12:30:00,
2013-09-30 08:45:00,50.1,49.0,30.03,NE,41,0.0,0.0,96,0.00,,,-99.99,VWS V12.06,2013-09-30 12:45:00,
2013-09-30 09:00:00,53.2,51.2,30.02,NE,41,0.0,0.0,93,0.00,,,-99.99,VWS V12.06,2013-09-30 13:00:00,
2013-09-30 09:15:00,55.0,50.6,30.03,NE,41,0.0,0.0,85,0.00,,,-99.99,VWS V12.06,2013-09-30 13:15:00,
2013-09-30 09:30:00,57.0,49.5,30.03,NE,41,0.0,0.0,76,0.00,,,-99.99,VWS V12.06,2013-09-30 13:30:00,
2013-09-30 09:45:00,59.2,50.2,30.02,NE,41,0.0,0.0,72,0.00,,,-99.99,VWS V12.06,2013-09-30 13:45:00,
2013-09-30 10:00:00,60.7,49.7,30.01,NE,41,0.0,0.0,67,0.00,,,-99.99,VWS V12.06,2013-09-30 14:00:00,
2013-09-30 10:15:00,61.6,49.3,30.01,NE,41,0.0,0.0,64,0.00,,,-99.99,VWS V12.06,2013-09-30 14:15:00,
2013-09-30 10:30:00,61.6,47.2,30.01,NE,44,0.0,0.0,59,0.00,,,-99.99,VWS V12.06,2013-09-30 14:30:00,
2013-09-30 10:45:00,61.8,47.3,30.02,NE,44,0.0,2.0,59,0.00,,,-99.99,VWS V12.06,2013-09-30 14:45:00,
2013-09-30 11:00:00,62.9,46.0,30.01,NNE,17,0.0,0.0,54,0.00,,,-99.99,VWS V12.06,2013-09-30 15:00:00,
2013-09-30 11:15:00,63.5,46.6,30.00,NE,40,2.0,3.0,54,0.00,,,-99.99,VWS V12.06,2013-09-30 15:15:00,
2013-09-30 11:30:00,64.2,47.7,29.99,NE,40,0.0,1.0,55,0.00,,,-99.99,VWS V12.06,2013-09-30 15:30:00,
2013-09-30 11:45:00,64.3,47.8,29.99,NE,40,0.0,0.0,55,0.00,,,-99.99,VWS V12.06,2013-09-30 15:45:00,
2013-09-30 12:00:00,64.3,46.8,29.99,NE,38,0.0,2.0,53,0.00,,,-99.99,VWS V12.06,2013-09-30 16:00:00,
2013-09-30 12:15:00,65.2,47.7,29.99,NNW,336,0.0,1.0,53,0.00,,,-99.99,VWS V12.06,2013-09-30 16:15:00,
2013-09-30 12:30:00,65.3,47.8,29.98,North,0,2.0,3.0,53,0.00,,,-99.99,VWS V12.06,2013-09-30 16:30:00,
2013-09-30 12:45:00,64.8,46.8,29.98,NNE,25,1.0,1.0,52,0.00,,,-99.99,VWS V12.06,2013-09-30 16:45:00,
2013-09-30 13:00:00,65.5,46.9,29.98,NNE,31,0.0,3.0,51,0.00,,,-99.99,VWS V12.06,2013-09-30 17:00:00,
2013-09-30 13:15:00,65.6,46.5,29.97,NNE,23,1.0,4.0,50,0.00,,,-99.99,VWS V12.06,2013-09-30 17:15:00,
2013-09-30 13:30:00,65.2,48.2,29.96,East,93,0.0,3.0,54,0.00,,,-99.99,VWS V12.06,2013-09-30 17:30:00,
2013-09-30 13:45:00,65.8,48.2,29.96,NW,315,0.0,5.0,53,0.00,,,-99.99,VWS V12.06,2013-09-30 17:45:00,
2013-09-30 14:00:00,65.8,47.2,29.95,East,99,0.0,4.0,51,0.00,,,-99.99,VWS V12.06,2013-09-30 18:00:00,
2013-09-30 14:15:00,66.1,48.0,29.95,ESE,113,1.0,2.0,52,0.00,,,-99.99,VWS V12.06,2013-09-30 18:15:00,
2013-09-30 14:30:00,65.6,47.0,29.95,ESE,112,0.0,1.0,51,0.00,,,-99.99,VWS V12.06,2013-09-30 18:30:00,
2013-09-30 14:45:00,66.4,47.2,29.95,South,171,1.0,1.0,50,0.00,,,-99.99,VWS V12.06,2013-09-30 18:45:00,
2013-09-30 15:00:00,65.8,46.7,29.95,ESE,113,2.0,2.0,50,0.00,,,-99.99,VWS V12.06,2013-09-30 19:00:00,
2013-09-30 15:15:00,66.0,46.8,29.95,East,85,0.0,1.0,50,0.00,,,-99.99,VWS V12.06,2013-09-30 19:15:00,
2013-09-30 15:30:00,66.0,47.4,29.94,North,4,0.0,2.0,51,0.00,,,-99.99,VWS V12.06,2013-09-30 19:30:00,
2013-09-30 15:45:00,65.8,47.2,29.94,North,8,0.0,0.0,51,0.00,,,-99.99,VWS V12.06,2013-09-30 19:45:00,
2013-09-30 16:00:00,65.5,46.9,29.94,North,8,0.0,0.0,51,0.00,,,-99.99,VWS V12.06,2013-09-30 20:00:00,
2013-09-30 16:15:00,65.5,47.9,29.94,North,8,0.0,0.0,53,0.00,,,-99.99,VWS V12.06,2013-09-30 20:15:00,
2013-09-30 16:30:00,65.0,47.5,29.93,North,8,0.0,2.0,53,0.00,,,-99.99,VWS V12.06,2013-09-30 20:30:00,
2013-09-30 16:45:00,64.7,48.7,29.93,North,8,0.0,0.0,56,0.00,,,-99.99,VWS V12.06,2013-09-30 20:45:00,
2013-09-30 17:00:00,64.3,47.8,29.92,North,8,0.0,0.0,55,0.00,,,-99.99,VWS V12.06,2013-09-30 21:00:00,
2013-09-30 17:15:00,64.2,47.7,29.93,North,8,0.0,0.0,55,0.00,,,-99.99,VWS V12.06,2013-09-30 21:15:00,
2013-09-30 17:30:00,63.9,48.8,29.92,North,8,0.0,0.0,58,0.00,,,-99.99,VWS V12.06,2013-09-30 21:30:00,
2013-09-30 17:45:00,63.2,49.5,29.92,North,10,0.0,0.0,61,0.00,,,-99.99,VWS V12.06,2013-09-30 21:45:00,
2013-09-30 18:00:00,62.3,50.4,29.92,North,10,0.0,0.0,65,0.00,,,-99.99,VWS V12.06,2013-09-30 22:00:00,
2013-09-30 18:15:00,61.0,50.4,29.93,North,8,0.0,0.0,68,0.00,,,-99.99,VWS V12.06,2013-09-30 22:15:00,
2013-09-30 18:30:00,59.3,50.3,29.94,North,10,0.0,0.0,72,0.00,,,-99.99,VWS V12.06,2013-09-30 22:30:00,
2013-09-30 18:45:00,58.3,50.4,29.94,North,8,0.0,0.0,75,0.00,,,-99.99,VWS V12.06,2013-09-30 22:45:00,
2013-09-30 19:00:00,57.0,49.9,29.94,North,10,0.0,0.0,77,0.00,,,-99.99,VWS V12.06,2013-09-30 23:00:00,
2013-09-30 19:15:00,56.2,49.8,29.94,North,10,0.0,0.0,79,0.00,,,-99.99,VWS V12.06,2013-09-30 23:15:00,
2013-09-30 19:30:00,55.3,49.2,29.93,North,10,0.0,0.0,80,0.00,,,-99.99,VWS V12.06,2013-09-30 23:30:00,
2013-09-30 19:45:00,54.7,49.0,29.94,North,8,0.0,0.0,81,0.00,,,-99.99,VWS V12.06,2013-09-30 23:45:00,
2013-09-30 20:00:00,54.1,49.1,29.94,North,10,0.0,0.0,83,0.00,,,-99.99,VWS V12.06,2013-10-01 00:00:00,
2013-09-30 20:15:00,53.6,48.9,29.94,North,8,0.0,0.0,84,0.00,,,-99.99,VWS V12.06,2013-10-01 00:15:00,
2013-09-30 20:30:00,53.2,48.8,29.93,North,10,0.0,0.0,85,0.00,,,-99.99,VWS V12.06,2013-10-01 00:30:00,
2013-09-30 20:45:00,52.9,48.8,29.94,North,8,0.0,0.0,86,0.00,,,-99.99,VWS V12.06,2013-10-01 00:45:00,
2013-09-30 21:00:00,52.5,48.8,29.93,North,10,0.0,0.0,87,0.00,,,-99.99,VWS V12.06,2013-10-01 01:00:00,
2013-09-30 21:15:00,52.0,48.6,29.93,North,8,0.0,0.0,88,0.00,,,-99.99,VWS V12.06,2013-10-01 01:15:00,
2013-09-30 21:30:00,51.7,48.3,29.92,North,8,0.0,0.0,88,0.00,,,-99.99,VWS V12.06,2013-10-01 01:30:00,
2013-09-30 21:45:00,51.6,48.5,29.93,North,10,0.0,0.0,89,0.00,,,-99.99,VWS V12.06,2013-10-01 01:45:00,
2013-09-30 22:00:00,51.3,48.2,29.93,North,8,0.0,0.0,89,0.00,,,-99.99,VWS V12.06,2013-10-01 02:00:00,
2013-09-30 22:15:00,51.1,47.7,29.93,North,8,0.0,0.0,88,0.00,,,-99.99,VWS V12.06,2013-10-01 02:15:00,
2013-09-30 22:30:00,51.1,48.0,29.92,North,8,0.0,0.0,89,0.00,,,-99.99,VWS V12.06,2013-10-01 02:30:00,
2013-09-30 22:45:00,51.0,47.9,29.92,North,10,0.0,0.0,89,0.00,,,-99.99,VWS V12.06,2013-10-01 02:45:00,
2013-09-30 23:00:00,50.8,47.7,29.92,North,8,0.0,0.0,89,0.00,,,-99.99,VWS V12.06,2013-10-01 03:00:00,
2013-09-30 23:15:00,50.8,47.4,29.92,North,10,0.0,0.0,88,0.00,,,-99.99,VWS V12.06,2013-10-01 03:15:00,
2013-09-30 23:30:00,51.0,47.6,29.92,North,10,0.0,0.0,88,0.00,,,-99.99,VWS V12.06,2013-10-01 03:30:00,
2013-09-30 23:45:00,51.3,47.6,29.92,North,8,0.0,0.0,87,0.00,,,-99.99,VWS V12.06,2013-10-01 03:45:00,